Somnia — XPD7816 — position and weather

sailwx.info

Track history (hours):
 
Tides and Currents Weather Stations Pressure Air Temp Water Temp Dewpoint Dewpoint Depression Visibility Wind Speed Wind Dir Waves Ship Positions

Somnia

Last reported at 2018-Jun-17 09:59 UTC. Time now 2018-Jun-18 05:39 UTC.
Position N 55°10' E 010°51'.

Length 16 m.

Type: Sailing vessel. MMSI: 219010224.

Date/timePositionNaut miles runAvg speedWind from/ knotsBaromVisibWave heightAir tempDewpointWater temp
2018-Jun-17 09:59N 55°10' E 010°51'4 6.9
2018-Jun-17 09:28N 55°06' E 010°48'86 1.9
2018-Jun-15 12:44N 53°59' E 009°17'2 6.9
2018-Jun-15 12:30N 53°58' E 009°15'3 6.8
2018-Jun-15 11:59N 53°55' E 009°11'2 3.7
2018-Jun-15 11:28N 53°54' E 009°09'0 0.7
2018-Jun-15 10:59N 53°53' E 009°09'0 0.0
2018-Jun-15 10:30N 53°53' E 009°09'3 5.8
2018-Jun-15 09:56N 53°52' E 009°03'3 7.3
2018-Jun-15 09:30N 53°51' E 008°58'3 6.2
2018-Jun-15 08:59N 53°51' E 008°53'4 4.3
2018-Jun-15 08:06N 53°51' E 008°47'1 3.0
2018-Jun-15 07:38N 53°52' E 008°44'1 3.0
2018-Jun-15 07:21N 53°52' E 008°43'1 0.0
2018-Jun-14 17:45N 53°52' E 008°42'1 3.5
2018-Jun-14 17:28N 53°53' E 008°42'2 3.2
2018-Jun-14 17:00N 53°55' E 008°41'126 7.2
2018-Jun-13 23:31N 53°26' E 005°13'0 6.3
2018-Jun-13 23:27N 53°26' E 005°12'3 6.3
2018-Jun-13 23:00N 53°24' E 005°08'3 6.6
2018-Jun-13 22:30N 53°23' E 005°03'3 5.0
2018-Jun-13 21:59N 53°21' E 005°00'4 8.4
2018-Jun-13 21:30N 53°20' E 005°07'3 6.5
2018-Jun-13 20:59N 53°17' E 005°10'3 5.6
2018-Jun-13 20:22N 53°14' E 005°12'2 5.4
2018-Jun-13 20:00N 53°14' E 005°16'3 5.6
2018-Jun-13 19:30N 53°12' E 005°19'3 5.2
2018-Jun-13 19:00N 53°11' E 005°23'3 6.2
2018-Jun-13 18:30N 53°08' E 005°23'4 7.0
2018-Jun-13 17:59N 53°05' E 005°20'2 3.7
2018-Jun-13 17:30N 53°03' E 005°21'3 6.4
2018-Jun-13 16:58N 52°60' E 005°19'3 6.6
2018-Jun-13 16:30N 52°56' E 005°18'3 6.0
2018-Jun-13 16:00N 52°53' E 005°19'3 6.8
2018-Jun-13 15:30N 52°50' E 005°19'3 6.3
2018-Jun-13 15:00N 52°47' E 005°19'3 6.3
2018-Jun-13 14:30N 52°44' E 005°19'2 3.2
2018-Jun-13 13:58N 52°42' E 005°18'0 0.5
2018-Jun-13 13:30N 52°42' E 005°18'1 2.8
2018-Jun-13 13:00N 52°41' E 005°17'3 6.0
2018-Jun-13 12:30N 52°38' E 005°16'3 6.7
2018-Jun-13 12:00N 52°35' E 005°15'3 6.1
2018-Jun-13 11:30N 52°32' E 005°13'3 6.3
2018-Jun-13 11:00N 52°29' E 005°10'4 7.1
2018-Jun-13 10:30N 52°26' E 005°07'3 6.6
2018-Jun-13 10:00N 52°24' E 005°04'3 6.5
2018-Jun-13 09:31N 52°22' E 004°59'1 2.4
2018-Jun-13 08:56N 52°23' E 004°58'2 3.6
2018-Jun-13 08:30N 52°23' E 004°55'1 2.6
2018-Jun-13 08:00N 52°23' E 004°53'0 0.0
2018-Jun-12 23:46N 52°23' E 004°53'0 0.9
2018-Jun-12 23:30N 52°23' E 004°53'1 1.0
2018-Jun-12 23:00N 52°23' E 004°52'2 3.2
2018-Jun-12 22:29N 52°21' E 004°51'1 1.9
2018-Jun-12 22:00N 52°20' E 004°51'0 0.0
2018-Jun-12 18:46N 52°20' E 004°51'0 0.3
2018-Jun-12 18:30N 52°20' E 004°51'2 2.3
2018-Jun-12 17:28N 52°18' E 004°48'5 4.8
2018-Jun-12 16:25N 52°15' E 004°42'2 0.9
2018-Jun-12 14:15N 52°14' E 004°40'1 4.8
2018-Jun-12 14:00N 52°13' E 004°39'3 5.1
2018-Jun-12 13:30N 52°10' E 004°38'2 4.0
2018-Jun-12 12:58N 52°08' E 004°40'3 2.8
2018-Jun-12 12:01N 52°06' E 004°40'2 4.2
2018-Jun-12 11:32N 52°04' E 004°40'0 6.0
2018-Jun-12 11:30N 52°03' E 004°40'1 1.7
2018-Jun-12 11:00N 52°02' E 004°40'2 3.4
2018-Jun-12 10:29N 52°01' E 004°41'1 1.2
2018-Jun-12 10:00N 52°00' E 004°41'2 3.2
2018-Jun-12 09:30N 51°59' E 004°40'2 4.3
2018-Jun-12 09:00N 51°57' E 004°39'3 5.6
2018-Jun-12 08:30N 51°55' E 004°35'2 5.0
2018-Jun-12 08:00N 51°54' E 004°32'1 2.8
2018-Jun-12 07:30N 51°55' E 004°30'0 0.0
2018-Jun-11 12:26N 51°55' E 004°30'0 0.1
2018-Jun-11 12:00N 51°55' E 004°30'0 0.8
2018-Jun-11 11:30N 51°54' E 004°29'0 0.6
2018-Jun-11 10:56N 51°54' E 004°29'0 0.0
2018-Jun-11 10:29N 51°54' E 004°29'0 0.0
2018-Jun-11 09:59N 51°54' E 004°29'0 0.0
2018-Jun-11 09:29N 51°54' E 004°29'0 0.7
2018-Jun-11 09:00N 51°54' E 004°29'0 0.0
2018-Jun-10 12:04N 51°54' E 004°29'0 0.0
2018-Jun-10 11:58N 51°54' E 004°29'2 3.1
2018-Jun-10 11:28N 51°54' E 004°26'  
Track history (hours):
 
Tides and Currents Weather Stations Pressure Air Temp Water Temp Dewpoint Dewpoint Depression Visibility Wind Speed Wind Dir Waves Ship Positions

Somnia

Last reported at 2018-Jun-17 09:59 UTC. Time now 2018-Jun-18 05:39 UTC.
Position N 55°10' E 010°51'.

Length 16 m.

Type: Sailing vessel. MMSI: 219010224.

Date/timePositionNaut miles runAvg speedWind from/ knotsBaromVisibWave heightAir tempDewpointWater temp
2018-Jun-17 09:59N 55°10' E 010°51'4 6.9
2018-Jun-17 09:28N 55°06' E 010°48'86 1.9
2018-Jun-15 12:44N 53°59' E 009°17'2 6.9
2018-Jun-15 12:30N 53°58' E 009°15'3 6.8
2018-Jun-15 11:59N 53°55' E 009°11'2 3.7
2018-Jun-15 11:28N 53°54' E 009°09'0 0.7
2018-Jun-15 10:59N 53°53' E 009°09'0 0.0
2018-Jun-15 10:30N 53°53' E 009°09'3 5.8
2018-Jun-15 09:56N 53°52' E 009°03'3 7.3
2018-Jun-15 09:30N 53°51' E 008°58'3 6.2
2018-Jun-15 08:59N 53°51' E 008°53'4 4.3
2018-Jun-15 08:06N 53°51' E 008°47'1 3.0
2018-Jun-15 07:38N 53°52' E 008°44'1 3.0
2018-Jun-15 07:21N 53°52' E 008°43'1 0.0
2018-Jun-14 17:45N 53°52' E 008°42'1 3.5
2018-Jun-14 17:28N 53°53' E 008°42'2 3.2
2018-Jun-14 17:00N 53°55' E 008°41'126 7.2
2018-Jun-13 23:31N 53°26' E 005°13'0 6.3
2018-Jun-13 23:27N 53°26' E 005°12'3 6.3
2018-Jun-13 23:00N 53°24' E 005°08'3 6.6
2018-Jun-13 22:30N 53°23' E 005°03'3 5.0
2018-Jun-13 21:59N 53°21' E 005°00'4 8.4
2018-Jun-13 21:30N 53°20' E 005°07'3 6.5
2018-Jun-13 20:59N 53°17' E 005°10'3 5.6
2018-Jun-13 20:22N 53°14' E 005°12'2 5.4
2018-Jun-13 20:00N 53°14' E 005°16'3 5.6
2018-Jun-13 19:30N 53°12' E 005°19'3 5.2
2018-Jun-13 19:00N 53°11' E 005°23'3 6.2
2018-Jun-13 18:30N 53°08' E 005°23'4 7.0
2018-Jun-13 17:59N 53°05' E 005°20'2 3.7
2018-Jun-13 17:30N 53°03' E 005°21'3 6.4
2018-Jun-13 16:58N 52°60' E 005°19'3 6.6
2018-Jun-13 16:30N 52°56' E 005°18'3 6.0
2018-Jun-13 16:00N 52°53' E 005°19'3 6.8
2018-Jun-13 15:30N 52°50' E 005°19'3 6.3
2018-Jun-13 15:00N 52°47' E 005°19'3 6.3
2018-Jun-13 14:30N 52°44' E 005°19'2 3.2
2018-Jun-13 13:58N 52°42' E 005°18'0 0.5
2018-Jun-13 13:30N 52°42' E 005°18'1 2.8
2018-Jun-13 13:00N 52°41' E 005°17'3 6.0
2018-Jun-13 12:30N 52°38' E 005°16'3 6.7
2018-Jun-13 12:00N 52°35' E 005°15'3 6.1
2018-Jun-13 11:30N 52°32' E 005°13'3 6.3
2018-Jun-13 11:00N 52°29' E 005°10'4 7.1
2018-Jun-13 10:30N 52°26' E 005°07'3 6.6
2018-Jun-13 10:00N 52°24' E 005°04'3 6.5
2018-Jun-13 09:31N 52°22' E 004°59'1 2.4
2018-Jun-13 08:56N 52°23' E 004°58'2 3.6
2018-Jun-13 08:30N 52°23' E 004°55'1 2.6
2018-Jun-13 08:00N 52°23' E 004°53'0 0.0
2018-Jun-12 23:46N 52°23' E 004°53'0 0.9
2018-Jun-12 23:30N 52°23' E 004°53'1 1.0
2018-Jun-12 23:00N 52°23' E 004°52'2 3.2
2018-Jun-12 22:29N 52°21' E 004°51'1 1.9
2018-Jun-12 22:00N 52°20' E 004°51'0 0.0
2018-Jun-12 18:46N 52°20' E 004°51'0 0.3
2018-Jun-12 18:30N 52°20' E 004°51'2 2.3
2018-Jun-12 17:28N 52°18' E 004°48'5 4.8
2018-Jun-12 16:25N 52°15' E 004°42'2 0.9
2018-Jun-12 14:15N 52°14' E 004°40'1 4.8
2018-Jun-12 14:00N 52°13' E 004°39'3 5.1
2018-Jun-12 13:30N 52°10' E 004°38'2 4.0
2018-Jun-12 12:58N 52°08' E 004°40'3 2.8
2018-Jun-12 12:01N 52°06' E 004°40'2 4.2
2018-Jun-12 11:32N 52°04' E 004°40'0 6.0
2018-Jun-12 11:30N 52°03' E 004°40'1 1.7
2018-Jun-12 11:00N 52°02' E 004°40'2 3.4
2018-Jun-12 10:29N 52°01' E 004°41'1 1.2
2018-Jun-12 10:00N 52°00' E 004°41'2 3.2
2018-Jun-12 09:30N 51°59' E 004°40'2 4.3
2018-Jun-12 09:00N 51°57' E 004°39'3 5.6
2018-Jun-12 08:30N 51°55' E 004°35'2 5.0
2018-Jun-12 08:00N 51°54' E 004°32'1 2.8
2018-Jun-12 07:30N 51°55' E 004°30'0 0.0
2018-Jun-11 12:26N 51°55' E 004°30'0 0.1
2018-Jun-11 12:00N 51°55' E 004°30'0 0.8
2018-Jun-11 11:30N 51°54' E 004°29'0 0.6
2018-Jun-11 10:56N 51°54' E 004°29'0 0.0
2018-Jun-11 10:29N 51°54' E 004°29'0 0.0
2018-Jun-11 09:59N 51°54' E 004°29'0 0.0
2018-Jun-11 09:29N 51°54' E 004°29'0 0.7
2018-Jun-11 09:00N 51°54' E 004°29'0 0.0
2018-Jun-10 12:04N 51°54' E 004°29'0 0.0
2018-Jun-10 11:58N 51°54' E 004°29'2 3.1
2018-Jun-10 11:28N 51°54' E 004°26'  

Dump ship's entire track history